Latest Weather Observations for Mount Hotham Airport

IDV60801

Issued at 1:02 pm EST Sunday 19 April 2015 (issued every 30 minutes, with the page automatically refreshed every 10 minutes)

About weather observations | Map of weather stations | Latest weather observations for VIC | Other Formats
Station Details ID: 083055 Name: MOUNT HOTHAM AIRPORT Lat: -37.05 Lon: 147.33 Height: 1295.4 m
Data from the previous 72 hours. | See also: Recent months at Mount Hotham Airport
Date/Time
EST
Temp
°C
App
Temp
°C
Dew
Point
Rel
Hum
%
Delta-T
°C
Wind Press
QNH
hPa
Press
MSL
hPa
Rain
since 9 am
mm
Dir
 
Spd
km/h
Gust
km/h
Spd
kts
Gust
kts
19/12:00pm 3.7 -2.4 0.7 81 1.2 S 22 35 12 19 1023.8 1023.3 0.0
19/11:00am 2.5 -2.7 2.4 99 0.0 S 19 28 10 15 1023.3 - 0.0
19/10:30am 2.4 -2.6 1.2 92 0.5 S 17 30 9 16 1023.0 - 0.0
19/10:00am 2.9 -2.0 2.3 96 0.3 S 17 26 9 14 1022.8 - 0.0
19/09:30am 2.2 -3.1 1.6 96 0.3 SSW 19 30 10 16 1022.4 - 0.0
19/09:00am 2.2 -2.7 2.1 99 0.0 S 17 28 9 15 1022.0 1021.4 9.6
19/08:30am 1.9 -3.4 1.8 99 0.0 S 19 32 10 17 1021.3 - 9.6
19/08:00am 1.5 -3.5 1.4 99 0.0 S 17 32 9 17 1020.7 - 9.6
19/07:56am 1.5 -3.1 1.4 99 0.0 S 15 28 8 15 1020.6 - 9.6
19/07:30am 1.8 -2.8 1.7 99 0.0 S 15 22 8 12 1020.1 - 9.4
19/07:00am 1.8 -1.6 1.7 99 0.0 S 9 17 5 9 1019.4 - 9.2
19/06:30am 1.9 -1.9 1.8 99 0.0 S 11 19 6 10 1018.8 - 9.2
19/06:26am 1.8 -2.4 1.7 99 0.0 S 13 20 7 11 1018.7 - 9.2
19/06:23am 1.9 -2.3 1.8 99 0.0 S 13 20 7 11 1018.7 - 9.2
19/06:00am 2.1 -2.4 2.0 99 0.0 SSE 15 19 8 10 1018.4 1017.7 9.2
19/05:30am 2.7 -0.6 2.6 99 0.0 S 9 15 5 8 1017.9 - 9.2
19/05:04am 3.0 -0.2 2.9 99 0.0 S 9 15 5 8 1017.6 - 9.2
19/05:00am 3.0 -0.2 2.9 99 0.0 S 9 20 5 11 1017.4 - 9.2
19/04:30am 3.6 0.1 3.5 99 0.0 SSW 11 19 6 10 1017.2 - 8.4
19/04:00am 4.2 1.2 4.1 99 0.0 S 9 17 5 9 1016.7 - 7.4
19/03:59am 4.2 1.2 4.1 99 0.0 S 9 17 5 9 1016.7 - 7.4
19/03:30am 5.1 2.6 5.0 99 0.0 SSE 7 11 4 6 1016.5 - 5.2
19/03:00am 5.7 3.8 4.8 94 0.4 SSE 4 6 2 3 1016.0 1015.2 4.2
19/02:30am 5.9 4.3 4.4 90 0.7 NNE 2 6 1 3 1016.1 - 4.0
19/02:25am 6.0 4.0 4.5 90 0.7 NNE 4 6 2 3 1016.1 - 4.0
19/02:00am 6.1 4.8 4.3 88 0.8 CALM 0 6 0 3 1016.2 - 4.0
19/01:30am 6.3 3.7 4.3 87 0.9 WNW 7 9 4 5 1016.4 - 4.0
19/01:00am 6.0 2.3 4.2 88 0.8 WNW 13 17 7 9 1016.4 - 4.0
19/12:30am 5.1 1.9 3.1 87 0.9 WNW 9 13 5 7 1016.1 - 4.0
19/12:00am 4.9 1.3 3.1 88 0.8 NNW 11 15 6 8 1016.1 1015.3 4.0
 
Date/Time
EST
Temp
°C
App
Temp
°C
Dew
Point
Rel
Hum
%
Delta-T
°C
Wind Press
QNH
hPa
Press
MSL
hPa
Rain
since 9 am
mm
Dir
 
Spd
km/h
Gust
km/h
Spd
kts
Gust
kts
18/11:30pm 4.8 2.5 2.8 87 0.9 S 4 7 2 4 1016.0 - 4.0
18/10:30pm 6.2 1.9 3.5 83 1.2 W 15 22 8 12 1016.3 - 4.0
18/10:00pm 6.3 2.0 3.3 81 1.4 W 15 22 8 12 1016.3 - 4.0
18/09:00pm 7.5 4.0 3.7 77 1.8 W 11 20 6 11 1015.9 1015.1 4.0
18/08:30pm 8.1 4.9 5.0 81 1.5 WNW 11 19 6 10 1015.7 - 4.0
18/08:00pm 8.6 4.7 5.5 81 1.5 WNW 15 20 8 11 1015.4 - 4.0
18/07:30pm 9.3 6.0 6.4 82 1.4 W 13 19 7 10 1015.2 - 4.0
18/07:00pm 9.9 6.7 7.0 82 1.5 W 13 20 7 11 1014.7 - 4.0
18/06:30pm 10.0 8.2 8.1 88 1.0 W 7 13 4 7 1014.4 - 4.0
18/06:00pm 10.1 8.0 8.2 88 1.0 W 9 13 5 7 1014.0 1013.2 4.0
18/05:30pm 10.6 7.3 8.0 84 1.4 WNW 15 22 8 12 1013.9 - 4.0
18/05:00pm 11.2 7.8 9.1 87 1.1 WNW 17 24 9 13 1013.9 - 4.0
18/04:30pm 11.8 9.2 9.2 84 1.4 NW 13 19 7 10 1013.8 - 4.0
18/04:00pm 12.0 9.1 9.6 85 1.3 NW 15 22 8 12 1013.4 - 4.0
18/03:30pm 12.2 9.5 10.4 89 1.0 NW 15 22 8 12 1013.5 - 4.0
18/03:00pm 12.0 9.6 10.2 89 1.0 WNW 13 19 7 10 1013.5 1012.6 4.0
18/02:30pm 11.8 10.3 10.4 91 0.8 NW 9 19 5 10 1013.4 - 4.0
18/02:00pm 12.1 10.3 11.0 93 0.6 W 11 17 6 9 1013.6 - 4.0
18/01:30pm 12.2 9.3 11.1 93 0.6 W 17 26 9 14 1013.7 - 4.0
18/01:00pm 13.0 9.9 11.6 91 0.8 NNW 19 32 10 17 1013.8 - 3.4
18/12:30pm 12.5 9.2 11.7 95 0.5 NW 20 39 11 21 1014.0 - 3.2
18/12:00pm 12.3 9.5 11.4 94 0.5 NNW 17 28 9 15 1014.7 1013.9 1.6
18/11:30am 12.5 9.2 10.9 90 0.9 NNW 19 37 10 20 1015.2 - 0.6
18/11:00am 12.4 8.0 10.5 88 1.1 NNW 24 39 13 21 1015.3 - 0.0
18/10:30am 12.8 9.7 10.3 85 1.4 NNW 17 30 9 16 1015.7 - 0.0
18/10:00am 12.5 8.8 10.0 85 1.4 NNW 20 37 11 20 1016.1 - 0.0
18/09:30am 12.7 9.3 9.2 79 1.9 NNW 17 41 9 22 1016.1 - 0.0
18/09:00am 12.0 7.1 10.1 88 1.0 NNW 26 52 14 28 1016.3 1015.6 32.2
18/08:30am 12.2 8.2 8.9 80 1.8 NNW 20 52 11 28 1016.1 - 32.2
18/08:00am 12.2 6.2 8.7 79 1.9 NNW 30 67 16 36 1015.5 - 32.2
18/07:30am 11.9 5.4 8.9 82 1.6 NW 33 52 18 28 1015.4 - 32.2
18/07:00am 11.8 4.4 10.0 89 1.0 NW 39 63 21 34 1014.8 - 32.2
18/06:30am 11.7 2.4 10.6 93 0.6 NW 50 70 27 38 1014.2 - 32.0
18/06:00am 11.6 2.5 10.0 90 0.9 NW 48 70 26 38 1014.3 1013.4 32.0
18/05:30am 11.5 3.4 10.2 92 0.7 NW 43 74 23 40 1014.4 - 31.8
18/05:24am 11.7 3.7 10.3 91 0.8 NW 43 69 23 37 1014.4 - 31.8
18/05:00am 11.7 6.0 11.2 97 0.3 NW 32 50 17 27 1015.3 - 30.8
18/04:30am 11.8 6.4 11.0 95 0.4 NW 30 50 16 27 1015.1 - 29.2
18/04:26am 11.9 6.6 11.3 96 0.3 NW 30 48 16 26 1015.1 - 29.2
18/04:25am 11.8 6.1 11.2 96 0.3 NW 32 48 17 26 1015.3 - 29.2
18/04:00am 12.0 7.2 11.7 98 0.2 NW 28 46 15 25 1015.6 - 26.4
18/03:58am 12.0 7.6 11.7 98 0.2 NW 26 35 14 19 1015.4 - 26.2
18/03:30am 11.6 5.1 10.5 93 0.6 NW 35 59 19 32 1015.4 - 23.4
18/03:00am 11.9 6.6 11.1 95 0.4 NW 30 46 16 25 1015.5 1014.7 20.6
18/02:30am 11.8 8.7 11.6 99 0.1 NNW 19 30 10 16 1016.2 - 17.8
18/02:00am 11.3 8.8 11.1 99 0.1 NNW 15 24 8 13 1016.3 - 15.0
18/01:30am 11.2 8.3 11.0 99 0.1 NNW 17 22 9 12 1017.1 - 12.6
18/01:00am 11.2 7.9 10.9 98 0.2 NNW 19 26 10 14 1017.1 - 10.8
18/12:33am 11.5 6.5 11.0 97 0.3 NW 28 39 15 21 1017.9 - 9.2
18/12:30am 11.6 6.6 11.1 97 0.3 NW 28 39 15 21 1017.8 - 8.8
18/12:00am 11.8 8.7 11.6 99 0.1 NNW 19 35 10 19 1017.9 1017.2 6.2
 
Date/Time
EST
Temp
°C
App
Temp
°C
Dew
Point
Rel
Hum
%
Delta-T
°C
Wind Press
QNH
hPa
Press
MSL
hPa
Rain
since 9 am
mm
Dir
 
Spd
km/h
Gust
km/h
Spd
kts
Gust
kts
17/11:30pm 11.8 9.8 11.6 99 0.1 NW 13 22 7 12 1018.4 - 4.4
17/11:00pm 11.8 10.6 11.6 99 0.1 N 9 24 5 13 1018.4 - 3.8
17/10:30pm 11.4 10.5 11.2 99 0.1 NNW 7 13 4 7 1018.8 - 3.0
17/10:00pm 11.5 9.4 11.0 97 0.3 NNW 13 17 7 9 1019.0 - 1.4
17/09:30pm 11.7 7.8 10.8 94 0.5 NW 22 28 12 15 1019.0 - 1.0
17/09:00pm 11.4 8.1 10.8 96 0.3 NW 19 24 10 13 1018.9 1018.2 1.0
17/08:30pm 11.6 7.0 11.1 97 0.3 NW 26 37 14 20 1018.9 - 1.0
17/08:00pm 11.2 7.7 11.0 99 0.1 NNW 20 26 11 14 1019.1 - 1.0
17/07:30pm 11.2 7.9 11.0 99 0.1 NNW 19 26 10 14 1019.5 - 1.0
17/07:00pm 10.8 8.2 10.6 99 0.1 NNW 15 20 8 11 1019.6 - 1.0
17/06:30pm 10.6 7.5 10.4 99 0.1 NNW 17 24 9 13 1019.6 - 1.0
17/06:00pm 10.4 8.0 10.2 99 0.1 NNW 13 17 7 9 1019.4 1018.7 1.0
17/05:30pm 9.9 7.8 9.8 99 0.1 N 11 17 6 9 1019.3 - 1.0
17/05:00pm 10.2 8.5 10.0 99 0.1 N 9 15 5 8 1019.6 - 0.8
17/04:30pm 9.8 8.6 9.7 99 0.1 NNE 6 9 3 5 1019.8 - 0.6
17/04:00pm 9.6 7.8 9.5 99 0.1 ENE 9 11 5 6 1020.2 - 0.4
17/03:30pm 10.0 8.5 9.2 95 0.4 ENE 7 9 4 5 1020.4 - 0.2
17/03:00pm 10.1 8.0 8.2 88 1.0 ENE 9 13 5 7 1020.5 1019.9 0.0
17/02:30pm 10.9 7.7 6.8 76 2.1 ENE 13 19 7 10 1021.0 - 0.0
17/02:00pm 10.8 7.4 6.0 72 2.4 ENE 13 17 7 9 1021.3 - 0.0
17/01:30pm 11.7 9.0 7.4 75 2.2 ENE 11 17 6 9 1021.5 - 0.0
17/01:00pm 12.0 9.4 7.9 76 2.2 ENE 11 19 6 10 1022.1 - 0.0
17/12:30pm 11.5 9.1 8.7 83 1.5 ENE 11 15 6 8 1022.8 - 0.0
17/12:00pm 11.6 9.3 9.0 84 1.4 ESE 11 13 6 7 1023.2 1022.7 0.0
17/11:30am 12.3 10.5 8.0 75 2.3 E 7 11 4 6 1023.9 - 0.0
17/11:00am 12.2 10.6 8.7 79 1.9 E 7 11 4 6 1024.5 - 0.0
17/10:30am 12.2 10.2 6.9 70 2.7 N 7 11 4 6 1024.8 - 0.0
17/10:00am 12.2 10.2 7.3 72 2.5 NNW 7 11 4 6 1025.2 - 0.0
17/09:30am 11.9 10.0 6.6 70 2.7 N 6 9 3 5 1025.4 - 0.0
17/09:00am 12.7 10.3 7.0 68 2.9 NNW 9 13 5 7 1025.4 1024.9 0.0
17/08:30am 11.5 9.3 6.4 71 2.6 NNW 7 9 4 5 1025.4 - 0.0
17/08:00am 9.6 6.9 5.8 77 1.9 NW 9 15 5 8 1025.4 - 0.0
17/07:30am 7.8 5.5 5.8 87 1.0 NW 7 9 4 5 1025.2 - 0.0
17/07:00am 5.5 2.9 4.2 91 0.6 NNW 7 11 4 6 1024.6 - 0.0
17/06:30am 6.5 5.3 6.4 99 0.0 NW 2 4 1 2 1024.6 - 0.0
17/06:28am 6.4 5.2 6.3 99 0.0 NW 2 4 1 2 1024.6 - 0.0
17/06:00am 6.4 4.2 6.3 99 0.0 NNW 7 9 4 5 1024.6 1024.1 0.0
17/05:30am 6.7 4.8 6.6 99 0.0 NNW 6 7 3 4 1024.6 - 0.0
17/05:00am 7.0 5.9 6.9 99 0.0 WSW 2 6 1 3 1024.5 - 0.0
17/04:30am 7.1 5.6 7.0 99 0.0 SSE 4 6 2 3 1024.4 - 0.0
17/04:00am 6.7 4.6 6.6 99 0.0 SE 7 9 4 5 1024.0 - 0.0
17/03:53am 6.3 4.2 5.7 96 0.3 SE 6 7 3 4 1024.0 - 0.0
17/03:30am 6.8 4.8 4.5 85 1.1 NNW 4 6 2 3 1023.7 - 0.0
17/03:00am 8.5 5.9 6.0 84 1.2 NNW 9 13 5 7 1023.9 1023.4 0.0
17/02:30am 7.6 5.7 7.5 99 0.1 NNW 7 9 4 5 1024.6 - 0.0
17/02:00am 7.9 7.4 7.8 99 0.1 CALM 0 4 0 2 1025.3 - 0.0
17/01:30am 8.8 6.7 5.9 82 1.4 NNW 6 9 3 5 1025.5 - 0.0
17/01:00am 9.6 7.8 9.5 99 0.1 N 9 15 5 8 1025.8 - 0.0
17/12:31am 9.3 7.1 9.3 100 0.0 N 11 15 6 8 1026.1 - 0.0
17/12:30am 9.3 7.1 9.3 100 0.0 N 11 15 6 8 1026.2 - 0.0
17/12:00am 9.5 8.3 9.5 100 0.0 N 6 11 3 6 1026.3 1025.8 0.0
 
Date/Time
EST
Temp
°C
App
Temp
°C
Dew
Point
Rel
Hum
%
Delta-T
°C
Wind Press
QNH
hPa
Press
MSL
hPa
Rain
since 9 am
mm
Dir
 
Spd
km/h
Gust
km/h
Spd
kts
Gust
kts
16/11:30pm 9.5 8.3 9.5 100 0.0 NNW 6 11 3 6 1026.5 - 0.0
16/11:00pm 9.4 8.2 9.4 100 0.0 E 6 6 3 3 1026.7 - 0.0
16/10:30pm 9.5 8.3 9.5 100 0.0 ESE 6 7 3 4 1026.7 - 0.0
16/10:00pm 9.7 8.9 9.7 100 0.0 E 4 7 2 4 1026.9 - 0.0
16/09:30pm 9.7 8.5 9.7 100 0.0 S 6 9 3 5 1026.5 - 0.0
16/09:00pm 9.7 8.5 9.7 100 0.0 SSE 6 7 3 4 1026.1 1025.6 0.0
16/08:30pm 9.8 9.0 9.7 99 0.1 ESE 4 6 2 3 1026.2 - 0.0
16/08:00pm 9.8 8.6 9.7 99 0.1 S 6 9 3 5 1026.2 - 0.0
16/07:30pm 10.0 9.3 9.9 99 0.1 S 4 7 2 4 1026.3 - 0.0
16/07:00pm 10.1 9.4 9.9 99 0.1 SSE 4 7 2 4 1026.1 - 0.0
16/06:30pm 10.1 9.0 9.9 99 0.1 S 6 9 3 5 1025.7 - 0.0
16/06:00pm 10.7 9.6 10.5 99 0.1 SSW 7 9 4 5 1025.0 1024.5 0.0
16/05:30pm 11.4 10.0 10.8 96 0.3 S 9 13 5 7 1024.7 - 0.0
16/05:00pm 12.2 12.1 10.8 91 0.8 ESE 2 6 1 3 1024.8 - 0.0
16/04:30pm 12.5 11.0 10.6 88 1.1 S 9 13 5 7 1024.9 - 0.0
16/04:00pm 14.2 11.9 10.4 78 2.1 S 13 15 7 8 1024.7 - 0.0
16/03:30pm 16.3 14.5 10.8 70 3.1 ESE 11 17 6 9 1024.5 - 0.0
16/03:00pm 17.9 15.4 4.5 41 6.8 S 7 17 4 9 1024.2 1023.7 0.0
16/02:30pm 18.0 16.0 8.8 55 5.1 WSW 9 20 5 11 1023.9 - 0.0
16/02:00pm 17.5 15.3 6.1 47 6.0 WSW 7 13 4 7 1024.2 - 0.0
16/01:30pm 18.5 14.5 4.7 40 7.1 WNW 15 26 8 14 1024.2 - 0.0

Other Formats:

Comma delimited format used in spreadsheet applications
http://www.bom.gov.au/fwo/IDV60801/IDV60801.94905.axf

JavaScript Object Notation format (JSON) in row-major order
http://www.bom.gov.au/fwo/IDV60801/IDV60801.94905.json